Time;durP1;ratioP1;P1;durP2;ratioP2;P2;SDS_P1;SDS_P2;PMS_P1;PMS_P2;Temp;Humidity;BMP_temperature;BMP_pressure;BME280_temperature;BME280_humidity;BME280_pressure;Samples;Min_cycle;Max_cycle;Signal;HPM_P1;HPM_P2
2023/12/31 00:01:23;;;;;;;3.13;1.33;;;9.70;99.90;;;9.83;74.06;99593.69;5016318;28;20041;-85
2023/12/31 00:03:51;;;;;;;3.40;1.23;;;9.80;99.90;;;9.84;73.96;99582.00;5018115;28;20046;-86
2023/12/31 00:06:19;;;;;;;4.38;1.40;;;9.80;99.90;;;9.89;73.92;99578.63;5017751;28;20034;-86
2023/12/31 00:08:48;;;;;;;3.67;1.23;;;9.80;99.90;;;9.89;73.77;99568.00;5000474;28;20405;-86
2023/12/31 00:11:15;;;;;;;3.75;1.40;;;9.80;99.90;;;9.90;73.35;99570.41;5000153;28;20100;-86
2023/12/31 00:13:42;;;;;;;2.90;1.20;;;9.80;99.90;;;9.89;73.57;99575.97;5017598;28;20531;-85
2023/12/31 00:16:14;;;;;;;4.97;1.33;;;9.80;99.90;;;9.88;73.56;99569.03;5016657;28;20054;-86
2023/12/31 00:18:42;;;;;;;3.42;1.40;;;9.70;99.90;;;9.85;73.87;99564.16;5016718;28;20081;-85
2023/12/31 00:21:10;;;;;;;4.53;1.50;;;9.70;99.90;;;9.87;73.43;99549.59;5000522;28;20042;-84
2023/12/31 00:23:38;;;;;;;4.03;1.50;;;9.70;99.90;;;9.76;73.80;99548.53;5017414;28;20042;-83
2023/12/31 00:26:07;;;;;;;4.70;1.70;;;9.70;99.90;;;9.79;73.58;99552.56;5000159;28;20050;-86
2023/12/31 00:28:36;;;;;;;4.60;1.53;;;9.70;99.90;;;9.75;73.86;99548.72;4999838;28;20108;-86
2023/12/31 00:31:05;;;;;;;3.08;1.58;;;9.70;99.90;;;9.72;73.75;99544.69;5014950;28;20046;-86
2023/12/31 00:33:32;;;;;;;6.90;1.90;;;9.70;99.90;;;9.65;73.90;99546.63;5017212;28;20516;-86
2023/12/31 00:36:01;;;;;;;4.38;1.67;;;9.70;99.90;;;9.60;74.32;99549.16;5015790;28;20045;-86
2023/12/31 00:38:28;;;;;;;4.93;1.70;;;9.60;99.90;;;9.53;74.54;99532.50;4999363;28;20030;-85
2023/12/31 00:40:56;;;;;;;3.45;1.38;;;9.60;99.90;;;9.58;74.62;99524.63;4996596;28;20041;-84
2023/12/31 00:43:27;;;;;;;3.83;1.58;;;9.60;99.90;;;9.67;74.67;99504.63;5017719;28;20046;-84
2023/12/31 00:45:54;;;;;;;6.43;1.55;;;9.70;99.90;;;9.72;74.65;99490.63;5019062;28;20490;-84
2023/12/31 00:48:22;;;;;;;5.38;1.70;;;9.70;99.90;;;9.76;74.23;99497.94;5000336;28;20046;-84
2023/12/31 00:50:50;;;;;;;4.78;2.08;;;9.70;99.90;;;9.71;74.20;99489.00;5000701;28;20137;-84
2023/12/31 00:53:18;;;;;;;5.35;2.00;;;9.70;99.90;;;9.60;74.83;99495.94;5001675;28;20077;-84
2023/12/31 00:55:45;;;;;;;4.72;1.90;;;9.60;99.90;;;9.64;74.90;99496.28;5017051;28;20506;-84
2023/12/31 00:58:13;;;;;;;5.70;2.20;;;9.60;99.90;;;9.71;74.88;99505.81;5001585;28;20045;-84
2023/12/31 01:00:43;;;;;;;4.43;2.13;;;9.60;99.90;;;9.75;74.62;99504.28;5001599;28;20050;-84
2023/12/31 01:03:10;;;;;;;4.18;1.80;;;9.70;99.90;;;9.67;74.36;99487.84;4981547;28;20050;-84
2023/12/31 01:05:38;;;;;;;4.40;2.17;;;9.60;99.90;;;9.71;74.51;99487.16;4981738;28;20054;-84
2023/12/31 01:08:06;;;;;;;4.13;2.10;;;9.60;99.90;;;9.67;74.26;99464.69;4996827;28;20042;-84
2023/12/31 01:10:34;;;;;;;4.55;2.38;;;9.60;99.90;;;9.64;74.49;99459.81;4997831;28;20039;-84
2023/12/31 01:13:02;;;;;;;6.38;2.08;;;9.60;99.90;;;9.63;74.49;99466.19;4997892;28;20130;-84
2023/12/31 01:15:29;;;;;;;6.80;2.20;;;9.60;99.90;;;9.62;74.32;99466.44;4984396;28;20050;-84
2023/12/31 01:18:00;;;;;;;5.65;2.28;;;9.60;99.90;;;9.59;74.72;99467.69;4997806;28;20141;-84
2023/12/31 01:20:29;;;;;;;4.50;2.20;;;9.60;99.90;;;9.62;74.11;99461.91;4999548;28;20046;-84
2023/12/31 01:22:56;;;;;;;5.15;2.45;;;9.60;99.90;;;9.59;74.08;99445.59;4998578;28;20050;-84
2023/12/31 01:25:25;;;;;;;2.97;1.73;;;9.60;99.90;;;9.60;73.28;99440.03;4999220;28;20047;-84
2023/12/31 01:27:55;;;;;;;4.57;2.20;;;9.60;99.90;;;9.55;73.36;99430.06;4981797;28;20072;-84
2023/12/31 01:30:23;;;;;;;4.00;1.73;;;9.60;99.90;;;9.63;73.13;99428.94;4997523;28;20050;-84
2023/12/31 01:32:51;;;;;;;3.97;1.80;;;9.60;99.90;;;9.64;72.44;99429.72;4965822;28;20130;-84
2023/12/31 01:35:20;;;;;;;4.05;1.65;;;9.60;99.90;;;9.65;71.83;99426.03;4997911;28;20046;-85
2023/12/31 01:37:49;;;;;;;4.25;1.98;;;9.70;99.90;;;9.63;72.16;99412.16;4997357;28;20050;-84
2023/12/31 01:40:17;;;;;;;6.50;1.83;;;9.70;99.90;;;9.67;72.24;99411.47;4998705;28;20502;-84
2023/12/31 01:42:45;;;;;;;7.78;2.00;;;9.70;99.90;;;9.69;71.83;99409.34;4997520;28;20133;-84
2023/12/31 01:45:14;;;;;;;6.40;1.90;;;9.70;99.90;;;9.69;71.51;99404.03;4998333;28;20097;-84
2023/12/31 01:47:43;;;;;;;5.00;1.85;;;9.70;99.90;;;9.66;71.34;99417.81;4997574;28;20061;-84
2023/12/31 01:50:15;;;;;;;5.40;1.80;;;9.70;99.90;;;9.57;70.77;99411.22;4981467;28;20046;-84
2023/12/31 01:52:45;;;;;;;4.55;2.03;;;9.70;99.90;;;9.61;70.93;99391.06;4997425;28;20043;-84
2023/12/31 01:55:15;;;;;;;3.88;2.05;;;9.80;99.90;;;9.70;70.68;99400.31;4981694;28;20070;-84
2023/12/31 01:57:43;;;;;;;4.50;1.67;;;9.80;99.90;;;9.67;70.38;99392.00;4997746;28;20145;-84
2023/12/31 02:00:12;;;;;;;5.20;1.70;;;9.70;99.90;;;9.66;70.05;99393.03;4997157;28;20050;-84
2023/12/31 02:02:43;;;;;;;4.63;2.00;;;9.70;99.90;;;9.68;70.20;99391.78;5015960;28;20045;-84
2023/12/31 02:05:11;;;;;;;3.90;1.90;;;9.80;99.90;;;9.66;70.14;99385.03;5016110;28;20053;-84
2023/12/31 02:07:38;;;;;;;4.60;2.08;;;9.80;99.90;;;9.64;70.02;99390.59;5016332;28;20038;-84
2023/12/31 02:10:09;;;;;;;4.63;1.80;;;9.70;99.90;;;9.68;70.46;99375.78;5011871;28;20100;-84
2023/12/31 02:12:37;;;;;;;3.70;1.70;;;9.70;99.90;;;9.66;70.38;99374.41;4996769;28;20498;-84
2023/12/31 02:15:06;;;;;;;6.15;2.00;;;9.70;99.90;;;9.74;70.36;99368.72;4980076;28;20050;-84
2023/12/31 02:17:34;;;;;;;5.10;1.98;;;9.70;99.90;;;9.68;70.59;99362.50;4996577;28;20054;-84
2023/12/31 02:20:03;;;;;;;6.18;2.55;;;9.70;99.90;;;9.57;70.34;99363.31;4980824;28;20042;-84
2023/12/31 02:22:31;;;;;;;5.43;1.80;;;9.70;99.90;;;9.54;70.38;99361.91;4963771;28;20057;-84
2023/12/31 02:25:05;;;;;;;4.50;2.03;;;9.70;99.90;;;9.60;70.49;99348.72;4981599;28;20057;-84
2023/12/31 02:27:34;;;;;;;4.45;1.90;;;9.70;99.90;;;9.63;70.30;99346.41;4996992;28;20128;-84
2023/12/31 02:30:02;;;;;;;6.85;2.10;;;9.70;99.90;;;9.56;70.04;99345.69;4980560;28;20057;-84
2023/12/31 02:32:30;;;;;;;4.63;1.95;;;9.70;99.90;;;9.55;70.10;99338.75;4981105;28;20042;-84
2023/12/31 02:34:59;;;;;;;4.28;1.73;;;9.70;99.90;;;9.52;70.09;99325.94;4997493;28;20057;-86
2023/12/31 02:37:26;;;;;;;4.50;2.08;;;9.70;99.90;;;9.59;70.56;99325.81;4980388;28;20081;-84
2023/12/31 02:39:56;;;;;;;3.75;1.90;;;9.70;99.90;;;9.49;69.63;99324.53;5015242;28;20080;-85
2023/12/31 02:42:23;;;;;;;5.97;1.85;;;9.70;99.90;;;9.50;69.43;99310.19;5000880;28;20049;-84
2023/12/31 02:44:52;;;;;;;4.55;1.80;;;9.70;99.90;;;9.46;69.75;99310.88;5000399;28;20115;-84
2023/12/31 02:47:21;;;;;;;5.53;1.92;;;9.70;99.90;;;9.49;69.67;99299.78;5000378;28;20042;-84
2023/12/31 02:49:49;;;;;;;3.58;1.70;;;9.70;99.90;;;9.49;69.85;99300.56;5016795;28;20571;-84
2023/12/31 02:52:16;;;;;;;5.28;1.95;;;9.70;99.90;;;9.47;69.98;99278.72;5016972;28;20041;-84
2023/12/31 02:54:45;;;;;;;3.58;1.80;;;9.70;99.90;;;9.53;69.88;99280.44;5001344;28;20050;-84
2023/12/31 02:57:13;;;;;;;4.35;1.60;;;9.60;99.90;;;9.59;69.99;99286.69;5001889;28;20073;-84
2023/12/31 02:59:42;;;;;;;3.28;1.80;;;9.60;99.90;;;9.61;69.95;99276.59;5000419;28;20109;-84
2023/12/31 03:02:13;;;;;;;4.63;1.88;;;9.70;99.90;;;9.63;70.15;99266.53;4981882;28;20050;-84
2023/12/31 03:04:40;;;;;;;5.43;1.70;;;9.60;99.90;;;9.68;70.06;99263.19;4997776;28;20519;-84
2023/12/31 03:07:08;;;;;;;4.95;1.77;;;9.70;99.90;;;9.71;70.46;99252.88;4994223;28;20050;-84
2023/12/31 03:09:37;;;;;;;4.78;1.90;;;9.70;99.90;;;9.68;69.91;99253.34;5004315;28;20501;-84
2023/12/31 03:12:06;;;;;;;6.70;2.10;;;9.70;99.90;;;9.69;69.69;99254.94;5005064;28;20046;-84
2023/12/31 03:14:35;;;;;;;3.88;2.03;;;9.60;99.90;;;9.67;69.98;99248.25;5018507;28;20049;-84
2023/12/31 03:17:03;;;;;;;3.83;1.90;;;9.60;99.90;;;9.72;70.50;99243.84;5014311;28;20520;-84
2023/12/31 03:19:36;;;;;;;5.85;2.13;;;9.70;99.90;;;9.71;70.10;99231.56;4997757;28;20465;-84
2023/12/31 03:22:05;;;;;;;5.75;2.35;;;9.70;99.90;;;9.65;70.26;99235.16;4981984;28;20042;-84
2023/12/31 03:24:32;;;;;;;3.85;1.90;;;9.70;99.90;;;9.67;70.49;99226.97;4997176;28;20046;-84
2023/12/31 03:27:03;;;;;;;3.83;2.08;;;9.70;99.90;;;9.70;70.84;99229.13;4998444;28;20058;-84
2023/12/31 03:29:30;;;;;;;5.32;2.92;;;9.60;99.90;;;9.69;70.77;99219.53;4980799;28;20129;-84
2023/12/31 03:31:58;;;;;;;3.78;1.83;;;9.60;99.90;;;9.69;71.00;99228.31;5000082;28;20505;-84
2023/12/31 03:34:28;;;;;;;5.65;2.20;;;9.60;99.90;;;9.73;70.97;99228.66;4989578;28;20050;-84
2023/12/31 03:36:58;;;;;;;6.80;2.13;;;9.70;99.90;;;9.71;70.87;99220.09;5003659;28;20052;-84
2023/12/31 03:39:25;;;;;;;4.28;2.25;;;9.70;99.90;;;9.72;71.10;99216.41;5019368;28;20045;-84
2023/12/31 03:41:53;;;;;;;7.03;2.30;;;9.70;99.90;;;9.72;70.86;99214.56;5003810;28;20052;-84
2023/12/31 03:44:21;;;;;;;4.95;2.40;;;9.70;99.90;;;9.73;70.71;99212.69;5020025;28;20041;-85
2023/12/31 03:46:50;;;;;;;3.92;2.00;;;9.70;99.90;;;9.74;70.53;99212.44;5020390;28;20045;-84
2023/12/31 03:49:17;;;;;;;5.22;2.40;;;9.70;99.90;;;9.70;70.58;99207.84;5019994;28;20056;-84
2023/12/31 03:51:45;;;;;;;5.03;2.40;;;9.70;99.90;;;9.67;70.90;99203.81;5002768;28;20050;-84
2023/12/31 03:54:14;;;;;;;5.35;2.28;;;9.60;99.90;;;9.70;71.08;99192.66;5020218;28;20065;-84
2023/12/31 03:56:42;;;;;;;4.75;2.20;;;9.70;99.90;;;9.71;70.84;99198.78;5018947;28;20575;-85
2023/12/31 03:59:10;;;;;;;6.15;2.50;;;9.70;99.90;;;9.69;70.86;99183.06;5018360;28;20050;-85
2023/12/31 04:01:45;;;;;;;4.88;2.20;;;9.70;99.90;;;9.71;70.83;99180.16;5018712;28;20084;-85
2023/12/31 04:04:15;;;;;;;6.85;2.40;;;9.70;99.90;;;9.70;70.85;99174.03;5015513;28;20077;-85
2023/12/31 04:06:44;;;;;;;5.33;2.67;;;9.60;99.90;;;9.69;70.82;99172.41;4983210;28;20042;-85
2023/12/31 04:09:16;;;;;;;6.95;2.40;;;9.60;99.90;;;9.72;71.09;99157.84;4983153;28;20046;-84
2023/12/31 04:11:44;;;;;;;4.70;2.17;;;9.70;99.90;;;9.73;70.79;99151.47;5015813;28;20092;-84
2023/12/31 04:14:12;;;;;;;6.10;2.35;;;9.70;99.90;;;9.76;71.23;99138.50;5007411;28;20046;-84
2023/12/31 04:16:39;;;;;;;5.35;2.50;;;9.70;99.90;;;9.73;70.94;99136.28;5018179;28;20096;-85
2023/12/31 04:19:08;;;;;;;4.97;2.92;;;9.70;99.90;;;9.73;70.89;99130.97;5002598;28;20425;-85
2023/12/31 04:21:37;;;;;;;4.65;2.63;;;9.60;99.90;;;9.76;70.98;99127.84;5018527;28;20041;-85
2023/12/31 04:24:07;;;;;;;6.37;2.70;;;9.70;99.90;;;9.69;70.22;99107.72;5002117;28;20050;-85
2023/12/31 04:26:37;;;;;;;5.32;2.58;;;9.70;99.90;;;9.69;70.40;99105.88;5018289;28;20099;-85
2023/12/31 04:29:04;;;;;;;4.82;2.20;;;9.60;99.90;;;9.67;70.27;99096.53;4985228;28;20457;-85
2023/12/31 04:31:32;;;;;;;6.20;2.47;;;9.70;99.90;;;9.61;70.38;99092.13;4969279;28;20065;-85
2023/12/31 04:34:00;;;;;;;9.82;2.63;;;9.60;99.90;;;9.68;70.94;99092.81;5018740;28;20068;-85
2023/12/31 04:36:28;;;;;;;4.90;2.50;;;9.60;99.90;;;9.70;70.58;99077.38;5018399;28;20085;-86
2023/12/31 04:38:56;;;;;;;5.90;2.42;;;9.70;99.90;;;9.70;70.51;99075.53;5017734;28;20041;-85
2023/12/31 04:41:24;;;;;;;4.75;2.10;;;9.70;99.90;;;9.68;70.39;99060.88;4984428;28;20046;-85
2023/12/31 04:43:54;;;;;;;5.05;2.83;;;9.60;99.90;;;9.64;70.08;99057.88;5018775;28;20046;-85
2023/12/31 04:46:22;;;;;;;5.28;2.40;;;9.60;99.90;;;9.68;70.48;99051.00;5001908;28;20046;-85
2023/12/31 04:48:50;;;;;;;5.53;2.75;;;9.60;99.90;;;9.67;70.37;99049.41;5019153;28;20104;-85
2023/12/31 04:51:25;;;;;;;6.07;2.40;;;9.60;99.90;;;9.69;70.17;99041.19;5019494;28;20105;-85
2023/12/31 04:53:55;;;;;;;5.32;2.75;;;9.70;99.90;;;9.70;70.17;99038.25;5001930;28;20472;-85
2023/12/31 04:56:24;;;;;;;3.83;2.05;;;9.70;99.90;;;9.67;69.97;99036.09;5001568;28;20600;-84
2023/12/31 04:58:54;;;;;;;4.18;2.30;;;9.70;99.90;;;9.66;69.73;99029.16;5001082;28;20141;-85
2023/12/31 05:01:25;;;;;;;5.25;2.10;;;9.60;99.90;;;9.73;70.19;99034.31;4984110;28;20084;-84
2023/12/31 05:03:54;;;;;;;4.22;2.25;;;9.70;99.90;;;9.71;69.48;99023.94;5002074;28;20050;-84
2023/12/31 05:06:22;;;;;;;3.85;2.03;;;9.70;99.90;;;9.68;69.71;99024.41;5000937;28;20042;-84
2023/12/31 05:08:50;;;;;;;4.22;1.92;;;9.70;99.90;;;9.73;70.13;99019.16;4996063;28;20128;-85
2023/12/31 05:11:18;;;;;;;5.85;2.03;;;9.70;99.90;;;9.72;69.57;99020.22;4982032;28;20070;-85
2023/12/31 05:13:46;;;;;;;6.60;2.00;;;9.70;99.90;;;9.76;69.67;99005.38;4981570;28;20153;-85
2023/12/31 05:16:15;;;;;;;4.32;1.80;;;9.70;99.90;;;9.75;69.51;99001.06;4998503;28;20050;-86
2023/12/31 05:18:46;;;;;;;4.90;1.70;;;9.70;99.90;;;9.78;69.87;98997.94;4967034;28;20069;-85
2023/12/31 05:21:14;;;;;;;3.90;1.70;;;9.70;99.90;;;9.82;69.94;98982.28;5015026;28;20084;-85
2023/12/31 05:23:41;;;;;;;5.38;2.00;;;9.70;99.90;;;9.80;69.38;98985.19;5001828;28;20615;-84
2023/12/31 05:26:09;;;;;;;3.40;1.90;;;9.70;99.90;;;9.79;68.97;98985.44;4999593;28;20053;-84
2023/12/31 05:28:39;;;;;;;3.92;1.90;;;9.70;99.90;;;9.80;69.25;98987.84;5017045;28;20045;-85
2023/12/31 05:31:07;;;;;;;3.40;1.73;;;9.80;99.90;;;9.79;69.12;98975.59;5007843;28;20101;-84
2023/12/31 05:33:37;;;;;;;5.55;2.08;;;9.70;99.90;;;9.78;68.87;98970.50;4996362;28;20054;-84
2023/12/31 05:36:07;;;;;;;4.10;1.90;;;9.70;99.90;;;9.79;69.34;98967.59;4997317;28;20050;-85
2023/12/31 05:38:34;;;;;;;4.55;1.88;;;9.70;99.90;;;9.76;68.38;98960.13;4997297;28;20064;-85
2023/12/31 05:41:02;;;;;;;4.13;2.10;;;9.70;99.90;;;9.72;68.72;98947.53;4995937;28;20044;-85
2023/12/31 05:43:29;;;;;;;4.07;1.92;;;9.70;99.90;;;9.71;68.42;98954.72;4947450;28;20050;-85
2023/12/31 05:45:57;;;;;;;3.90;1.77;;;9.70;99.90;;;9.75;68.53;98950.50;4995660;28;20134;-84
2023/12/31 05:48:25;;;;;;;4.40;2.05;;;9.70;99.90;;;9.76;68.05;98946.81;4995873;28;20061;-84
2023/12/31 05:50:54;;;;;;;3.67;2.05;;;9.80;99.90;;;9.77;68.16;98932.44;4996044;28;20125;-84
2023/12/31 05:53:22;;;;;;;4.75;2.50;;;9.80;99.90;;;9.77;68.32;98931.63;4995176;28;20046;-84
2023/12/31 05:55:51;;;;;;;3.88;2.10;;;9.80;99.90;;;9.76;68.54;98917.53;4979102;28;20074;-84
2023/12/31 05:58:19;;;;;;;6.00;1.80;;;9.80;99.90;;;9.78;68.42;98919.94;4997941;28;20048;-85
2023/12/31 06:00:46;;;;;;;5.15;2.17;;;9.80;99.90;;;9.77;68.50;98918.31;5015912;28;20128;-84
2023/12/31 06:03:14;;;;;;;4.68;1.90;;;9.80;99.90;;;9.81;68.46;98922.09;5014461;28;20145;-84
2023/12/31 06:05:41;;;;;;;4.05;1.88;;;9.80;99.90;;;9.79;68.04;98919.66;5014992;28;20132;-84
2023/12/31 06:08:12;;;;;;;4.07;1.90;;;9.80;99.90;;;9.79;67.83;98911.69;4998877;28;20116;-85
2023/12/31 06:10:41;;;;;;;4.28;1.92;;;9.80;99.90;;;9.80;67.89;98907.97;5015414;28;20104;-84
2023/12/31 06:13:09;;;;;;;4.00;2.10;;;9.80;99.90;;;9.78;68.21;98904.75;5014405;28;20041;-84
2023/12/31 06:15:36;;;;;;;4.75;2.20;;;9.80;99.90;;;9.79;67.99;98914.34;5013969;28;20049;-84
2023/12/31 06:18:05;;;;;;;4.20;2.25;;;9.80;99.90;;;9.81;68.15;98914.13;5014097;28;20037;-84
2023/12/31 06:20:33;;;;;;;5.82;2.13;;;9.80;99.90;;;9.85;68.39;98888.59;4993196;28;20425;-84
2023/12/31 06:23:02;;;;;;;4.65;1.90;;;9.80;99.90;;;9.82;68.00;98886.44;4995881;28;20089;-85
2023/12/31 06:25:31;;;;;;;4.57;2.00;;;9.80;99.90;;;9.81;68.25;98892.81;4978704;28;20061;-85
2023/12/31 06:27:59;;;;;;;3.55;1.90;;;9.80;99.90;;;9.80;68.40;98892.00;5010470;28;20049;-84
2023/12/31 06:30:26;;;;;;;5.55;2.13;;;9.80;99.90;;;9.79;68.36;98895.72;5015116;28;20052;-84
2023/12/31 06:32:54;;;;;;;4.57;2.50;;;9.80;99.90;;;9.79;68.47;98874.41;4981838;28;20048;-84
2023/12/31 06:35:22;;;;;;;4.55;2.10;;;9.80;99.90;;;9.78;68.14;98874.66;5014612;28;20091;-84
2023/12/31 06:37:51;;;;;;;5.00;2.10;;;9.80;99.90;;;9.78;67.84;98877.31;5015369;28;20505;-84
2023/12/31 06:40:19;;;;;;;7.38;2.28;;;9.80;99.90;;;9.78;68.31;98878.13;5014616;28;20065;-85
2023/12/31 06:42:48;;;;;;;5.25;2.05;;;9.80;99.90;;;9.80;68.04;98876.03;5014735;28;20133;-85
2023/12/31 06:45:15;;;;;;;5.72;2.35;;;9.90;99.90;;;9.80;67.82;98868.03;4964974;28;20050;-85
2023/12/31 06:47:44;;;;;;;4.63;1.98;;;9.80;99.90;;;9.80;67.90;98878.69;5013666;28;20041;-84
2023/12/31 06:50:11;;;;;;;4.75;2.08;;;9.90;99.90;;;9.82;68.03;98870.47;4980916;28;20053;-84
2023/12/31 06:52:39;;;;;;;5.60;2.30;;;9.90;99.90;;;9.80;67.91;98867.22;5015368;28;20096;-84
2023/12/31 06:55:10;;;;;;;4.63;2.20;;;9.90;99.90;;;9.83;68.18;98858.75;4988187;28;20054;-84
2023/12/31 06:57:37;;;;;;;;;;;9.90;99.90;;;9.85;68.14;98855.84;4978815;28;20054;-84
2023/12/31 07:00:10;;;;;;;4.70;1.90;;;9.90;99.90;;;9.79;67.93;98855.78;4994248;28;20016;-84
2023/12/31 07:02:38;;;;;;;5.00;2.10;;;9.90;99.90;;;9.84;68.09;98856.91;4977979;28;20477;-84
2023/12/31 07:05:08;;;;;;;3.47;1.77;;;9.90;99.90;;;9.88;67.78;98844.72;4996793;28;20069;-84
2023/12/31 07:07:35;;;;;;;6.18;2.30;;;9.90;99.90;;;9.85;68.01;98842.53;4999556;28;20061;-84
2023/12/31 07:10:03;;;;;;;3.40;1.73;;;9.90;99.90;;;9.91;68.18;98852.22;4999491;28;20089;-84
2023/12/31 07:12:31;;;;;;;3.90;1.90;;;9.90;99.90;;;9.90;68.09;98856.72;4999194;28;20167;-84
2023/12/31 07:14:58;;;;;;;4.28;2.20;;;9.90;99.90;;;9.90;67.77;98843.41;4999897;28;20050;-84
2023/12/31 07:17:27;;;;;;;5.85;1.98;;;9.90;99.90;;;9.92;67.81;98832.53;4998278;28;20055;-84
2023/12/31 07:19:55;;;;;;;3.50;1.80;;;9.90;99.90;;;9.93;67.75;98831.47;4982242;28;20069;-84
2023/12/31 07:22:24;;;;;;;4.15;1.90;;;9.90;99.90;;;9.93;67.57;98823.47;5000970;28;20069;-84
2023/12/31 07:24:52;;;;;;;4.97;2.00;;;10.00;99.90;;;9.96;67.51;98828.31;5017790;28;20046;-84
2023/12/31 07:27:20;;;;;;;5.30;2.10;;;10.00;99.90;;;9.95;67.26;98830.16;5017771;28;20046;-84
2023/12/31 07:29:47;;;;;;;3.20;1.60;;;10.00;99.90;;;9.98;67.50;98816.34;5018463;28;20433;-84
2023/12/31 07:32:16;;;;;;;5.22;2.42;;;10.00;99.90;;;9.98;67.44;98824.34;5004228;28;20468;-84
2023/12/31 07:34:45;;;;;;;4.50;2.10;;;10.00;99.90;;;9.96;67.06;98828.31;5010777;28;20093;-84
2023/12/31 07:37:13;;;;;;;6.07;2.22;;;10.10;99.90;;;9.96;67.16;98797.16;4982301;28;20145;-84
2023/12/31 07:39:43;;;;;;;3.50;1.88;;;10.00;99.90;;;9.97;66.81;98809.41;4999402;28;20038;-84
2023/12/31 07:42:11;;;;;;;5.93;2.30;;;10.10;99.90;;;9.96;66.84;98809.66;4997827;28;20074;-84
2023/12/31 07:44:39;;;;;;;5.18;2.35;;;10.10;99.90;;;9.94;67.03;98801.91;4998961;28;20049;-84
2023/12/31 07:47:07;;;;;;;4.47;1.92;;;10.10;99.90;;;9.99;66.58;98801.97;4997414;28;20105;-84
2023/12/31 07:49:34;;;;;;;19.42;9.10;;;10.10;99.90;;;9.94;66.37;98793.13;4997090;28;20050;-84
2023/12/31 07:52:04;;;;;;;7.00;3.72;;;10.20;99.90;;;9.99;66.68;98795.84;4982415;28;20557;-84
2023/12/31 07:54:32;;;;;;;5.68;3.10;;;10.20;99.90;;;9.95;66.40;98781.41;4999159;28;20069;-84
2023/12/31 07:57:00;;;;;;;21.73;8.95;;;10.10;99.90;;;9.92;66.71;98797.91;4983903;28;20101;-84
2023/12/31 07:59:28;;;;;;;11.85;5.53;;;10.10;99.90;;;9.93;66.94;98770.22;5001051;28;20052;-84
2023/12/31 08:01:57;;;;;;;6.13;3.42;;;10.10;99.90;;;9.97;67.02;98788.09;5001485;28;20097;-83
2023/12/31 08:04:26;;;;;;;7.30;4.22;;;10.10;99.90;;;9.98;66.88;98770.28;5001419;28;20092;-83
2023/12/31 08:06:55;;;;;;;5.35;2.88;;;10.10;99.90;;;9.98;67.14;98775.59;5000485;28;20165;-84
2023/12/31 08:09:24;;;;;;;5.85;2.90;;;10.10;99.90;;;10.00;66.48;98786.78;5002033;28;20525;-84
2023/12/31 08:11:51;;;;;;;4.70;2.38;;;10.10;99.90;;;9.96;66.42;98775.06;5001296;28;20051;-83
2023/12/31 08:14:21;;;;;;;5.25;2.50;;;10.10;99.90;;;9.98;66.62;98768.41;5014483;28;20054;-83
2023/12/31 08:16:48;;;;;;;4.15;2.55;;;10.10;99.90;;;10.01;66.60;98769.78;5021744;28;20120;-83
2023/12/31 08:19:16;;;;;;;5.53;3.08;;;10.10;99.90;;;10.00;66.64;98776.97;5014494;28;20050;-83
2023/12/31 08:21:45;;;;;;;4.65;2.40;;;10.10;99.90;;;9.98;66.66;98768.41;5001949;28;20054;-84
2023/12/31 08:24:18;;;;;;;5.57;2.65;;;10.10;99.90;;;10.01;66.40;98770.59;5005158;28;20054;-84
2023/12/31 08:26:47;;;;;;;4.15;2.22;;;10.10;99.90;;;9.99;66.50;98771.88;4988839;28;20058;-83
2023/12/31 08:29:14;;;;;;;5.47;2.30;;;10.10;99.90;;;10.00;66.70;98758.31;5022100;28;20080;-82
2023/12/31 08:31:42;;;;;;;3.60;2.00;;;10.10;99.90;;;10.00;66.68;98754.84;5022713;28;20497;-83
2023/12/31 08:34:11;;;;;;;4.15;1.92;;;10.10;99.90;;;10.02;66.37;98768.72;5022788;28;20521;-83
2023/12/31 08:36:40;;;;;;;3.95;2.08;;;10.20;99.90;;;10.01;66.67;98756.47;5022166;28;20481;-83
2023/12/31 08:39:07;;;;;;;3.55;1.95;;;10.10;99.90;;;10.01;66.48;98761.78;5022528;28;20385;-83
2023/12/31 08:41:35;;;;;;;8.43;2.58;;;10.10;99.90;;;9.96;66.74;98767.88;5023507;28;20058;-83
2023/12/31 08:44:05;;;;;;;4.07;2.30;;;10.10;99.90;;;10.00;66.71;98760.16;4993698;28;20049;-84
2023/12/31 08:46:32;;;;;;;4.00;2.15;;;10.20;99.90;;;10.01;66.29;98751.13;5019984;28;20111;-83
2023/12/31 08:49:00;;;;;;;4.53;2.10;;;10.20;99.90;;;10.06;66.74;98759.19;5019618;28;20048;-85
2023/12/31 08:51:27;;;;;;;6.80;2.63;;;10.20;99.90;;;10.04;66.80;98746.09;5011149;28;20045;-83
2023/12/31 08:53:56;;;;;;;5.35;2.40;;;10.20;99.90;;;10.05;66.83;98744.22;5017130;28;20128;-85
2023/12/31 08:56:23;;;;;;;4.20;2.00;;;10.20;99.90;;;10.10;66.49;98746.94;5002620;28;20110;-82
2023/12/31 08:58:51;;;;;;;4.30;2.20;;;10.20;99.90;;;10.07;65.88;98753.59;5015540;28;20070;-83
2023/12/31 09:01:20;;;;;;;4.20;2.28;;;10.20;99.90;;;10.12;66.33;98757.38;5016867;28;20049;-82
2023/12/31 09:03:48;;;;;;;4.65;2.08;;;10.20;99.90;;;10.15;66.43;98746.19;4992371;28;20065;-83
2023/12/31 09:06:18;;;;;;;5.10;2.28;;;10.20;99.90;;;10.17;66.01;98750.25;5001919;28;20038;-83
2023/12/31 09:08:46;;;;;;;4.32;2.10;;;10.30;99.90;;;10.20;66.06;98754.25;5002725;28;20527;-82
2023/12/31 09:11:14;;;;;;;4.07;2.10;;;10.30;99.90;;;10.20;66.57;98749.75;5009171;28;20046;-83
2023/12/31 09:13:41;;;;;;;4.45;2.20;;;10.30;99.90;;;10.17;66.40;98754.75;4998561;28;20047;-82
2023/12/31 09:16:09;;;;;;;4.45;2.17;;;10.30;99.90;;;10.19;67.45;98737.47;5017934;28;20049;-83
2023/12/31 09:18:38;;;;;;;4.55;2.50;;;10.40;99.90;;;10.24;66.98;98755.38;5002383;28;20046;-82
2023/12/31 09:21:05;;;;;;;4.75;2.22;;;10.40;99.90;;;10.24;67.02;98734.88;5003790;28;20520;-82
2023/12/31 09:23:33;;;;;;;4.75;2.60;;;10.40;99.90;;;10.25;66.64;98736.50;5000574;28;20043;-82
2023/12/31 09:26:01;;;;;;;4.57;2.65;;;10.50;99.90;;;10.26;66.49;98746.09;5004230;28;20073;-82
2023/12/31 09:28:28;;;;;;;5.78;2.92;;;10.50;99.90;;;10.25;66.43;98736.50;5001206;28;20049;-83
2023/12/31 09:30:56;;;;;;;4.97;2.60;;;10.50;99.90;;;10.27;66.53;98715.72;5000773;28;20042;-83
2023/12/31 09:33:25;;;;;;;4.82;2.70;;;10.50;99.90;;;10.30;67.10;98706.44;5001874;28;20565;-83
2023/12/31 09:35:54;;;;;;;6.63;4.00;;;10.50;99.90;;;10.29;66.44;98718.94;5002249;28;20096;-87
2023/12/31 09:38:22;;;;;;;5.47;2.80;;;10.50;99.90;;;10.32;66.43;98715.78;5000622;28;20046;-85
2023/12/31 09:40:51;;;;;;;6.13;2.67;;;10.50;99.90;;;10.34;66.14;98712.84;5016087;28;20164;-83
2023/12/31 09:43:22;;;;;;;4.72;2.33;;;10.50;99.90;;;10.37;66.08;98717.69;5017718;28;20044;-83
2023/12/31 09:45:50;;;;;;;4.57;2.53;;;10.60;99.90;;;10.37;66.19;98707.03;5005913;28;20073;-83
2023/12/31 09:48:17;;;;;;;9.43;3.85;;;10.60;99.90;;;10.41;66.30;98699.34;5005665;28;20046;-83
2023/12/31 09:50:46;;;;;;;9.48;5.65;;;10.60;99.90;;;10.40;66.19;98700.41;5007365;28;20120;-84
2023/12/31 09:53:18;;;;;;;11.00;6.10;;;10.60;99.90;;;10.42;66.02;98684.94;5008712;28;20061;-83
2023/12/31 09:55:46;;;;;;;7.32;4.65;;;10.60;99.90;;;10.45;65.88;98684.44;5026967;28;20085;-83
2023/12/31 09:58:18;;;;;;;7.43;4.13;;;10.70;99.90;;;10.52;66.23;98671.69;5002683;28;20121;-83
2023/12/31 10:00:46;;;;;;;6.65;3.25;;;10.70;99.90;;;10.48;65.99;98697.25;5001715;28;20057;-83
2023/12/31 10:03:14;;;;;;;5.32;2.97;;;10.70;99.90;;;10.49;66.02;98685.53;4968384;28;20058;-83
2023/12/31 10:05:43;;;;;;;6.75;4.25;;;10.70;99.90;;;10.46;65.54;98688.72;5001224;28;20540;-83
2023/12/31 10:08:11;;;;;;;11.70;6.38;;;10.70;99.90;;;10.47;65.70;98691.13;5001092;28;20070;-83
2023/12/31 10:10:41;;;;;;;7.75;4.97;;;10.70;99.90;;;10.48;66.13;98683.94;5000083;28;20101;-83
2023/12/31 10:13:16;;;;;;;6.80;4.38;;;10.70;99.90;;;10.49;65.98;98672.19;4999648;28;20046;-83
2023/12/31 10:15:45;;;;;;;8.32;3.88;;;10.70;99.90;;;10.49;65.80;98675.69;4951438;28;20105;-83
2023/12/31 10:18:13;;;;;;;8.73;4.93;;;10.70;99.90;;;10.53;65.80;98686.63;5003993;28;20077;-83
2023/12/31 10:20:40;;;;;;;7.32;3.97;;;10.80;99.90;;;10.52;65.30;98677.84;5001347;28;20065;-83
2023/12/31 10:23:08;;;;;;;6.55;3.67;;;10.80;99.90;;;10.55;66.12;98676.53;4982649;28;20050;-83
2023/12/31 10:25:36;;;;;;;6.10;3.13;;;10.80;99.90;;;10.57;65.90;98688.53;4998752;28;20050;-83
2023/12/31 10:28:06;;;;;;;5.32;3.53;;;10.80;99.90;;;10.53;65.61;98699.97;4999388;28;20130;-83
2023/12/31 10:30:33;;;;;;;5.32;3.13;;;10.90;99.90;;;10.52;65.71;98695.69;4999420;28;20065;-83
2023/12/31 10:33:10;;;;;;;5.10;3.00;;;10.80;99.90;;;10.53;65.71;98681.31;5001133;28;20094;-83
2023/12/31 10:35:38;;;;;;;6.28;2.83;;;10.90;99.90;;;10.54;65.83;98693.56;4999570;28;20074;-83